createdAt,value
2023-04-11T00:00:21.267Z,5.10
2023-04-11T00:02:48.616Z,5.10
2023-04-11T00:05:16.217Z,5.00
2023-04-11T00:07:43.461Z,4.90
2023-04-11T00:10:10.984Z,4.90
2023-04-11T00:12:38.188Z,4.90
2023-04-11T00:15:05.917Z,4.90
2023-04-11T00:17:33.516Z,4.90
2023-04-11T00:20:07.634Z,4.90
2023-04-11T00:22:36.082Z,4.90
2023-04-11T00:25:03.208Z,4.90
2023-04-11T00:27:30.413Z,4.90
2023-04-11T00:29:58.589Z,4.80
2023-04-11T00:32:25.733Z,4.90
2023-04-11T00:34:53.132Z,4.80
2023-04-11T00:37:23.299Z,4.70
2023-04-11T00:39:51.094Z,4.60
2023-04-11T00:42:18.394Z,4.60
2023-04-11T00:44:46.135Z,4.60
2023-04-11T00:47:14.057Z,4.60
2023-04-11T00:49:41.587Z,4.60
2023-04-11T00:52:09.616Z,4.60
2023-04-11T00:54:36.824Z,4.50
2023-04-11T00:57:07.161Z,4.50
2023-04-11T00:59:34.462Z,4.50
2023-04-11T01:02:02.224Z,4.50
2023-04-11T01:04:32.908Z,4.50
2023-04-11T01:07:06.463Z,4.40
2023-04-11T01:09:35.653Z,4.40
2023-04-11T01:12:04.997Z,4.40
2023-04-11T01:14:32.174Z,4.40
2023-04-11T01:17:02.439Z,4.40
2023-04-11T01:19:31.532Z,4.30
2023-04-11T01:21:59.733Z,4.30
2023-04-11T01:24:28.302Z,4.30
2023-04-11T01:26:57.134Z,4.30
2023-04-11T01:29:24.363Z,4.30
2023-04-11T01:31:52.337Z,4.20
2023-04-11T01:34:21.207Z,4.30
2023-04-11T01:36:48.442Z,4.20
2023-04-11T01:39:15.746Z,4.20
2023-04-11T01:41:44.041Z,4.10
2023-04-11T01:44:11.478Z,4.10
2023-04-11T01:46:38.974Z,4.10
2023-04-11T01:49:09.948Z,4.00
2023-04-11T01:51:37.291Z,4.10
2023-04-11T01:54:05.177Z,4.00
2023-04-11T01:56:32.359Z,4.00
2023-04-11T01:58:59.609Z,3.90
2023-04-11T02:01:27.182Z,4.00
2023-04-11T02:03:54.540Z,4.00
2023-04-11T02:06:22.004Z,4.00
2023-04-11T02:08:49.187Z,4.00
2023-04-11T02:11:16.312Z,4.00
2023-04-11T02:13:43.816Z,4.00
2023-04-11T02:16:15.562Z,4.00
2023-04-11T02:18:44.584Z,3.90
2023-04-11T02:21:12.415Z,3.90
2023-04-11T02:23:39.590Z,3.90
2023-04-11T02:26:06.907Z,3.90
2023-04-11T02:28:34.417Z,3.80
2023-04-11T02:31:02.642Z,3.80
2023-04-11T02:33:29.995Z,3.80
2023-04-11T02:35:57.275Z,3.80
2023-04-11T02:38:24.488Z,3.90
2023-04-11T02:40:51.690Z,3.90
2023-04-11T02:43:19.224Z,3.80
2023-04-11T02:45:52.361Z,3.80
2023-04-11T02:48:21.459Z,3.70
2023-04-11T02:50:48.598Z,3.70
2023-04-11T02:53:16.657Z,3.70
2023-04-11T02:55:44.284Z,3.70
2023-04-11T02:58:18.226Z,3.70
2023-04-11T03:00:46.085Z,3.70
2023-04-11T03:03:13.849Z,3.70
2023-04-11T03:05:41.065Z,3.70
2023-04-11T03:08:09.369Z,3.60
2023-04-11T03:10:36.539Z,3.60
2023-04-11T03:13:03.706Z,3.60
2023-04-11T03:15:32.619Z,3.70
2023-04-11T03:17:59.804Z,3.70
2023-04-11T03:20:27.091Z,3.70
2023-04-11T03:22:54.189Z,3.80
2023-04-11T03:25:21.644Z,3.80
2023-04-11T03:27:49.179Z,3.70
2023-04-11T03:30:16.400Z,3.60
2023-04-11T03:32:46.303Z,3.60
2023-04-11T03:35:15.013Z,3.70
2023-04-11T03:37:42.139Z,3.70
2023-04-11T03:40:10.091Z,3.70
2023-04-11T03:42:37.699Z,3.70
2023-04-11T03:45:05.489Z,3.70
2023-04-11T03:47:32.670Z,3.70
2023-04-11T03:50:01.435Z,3.70
2023-04-11T03:52:28.948Z,3.70
2023-04-11T03:54:58.565Z,3.60
2023-04-11T03:57:28.602Z,3.60
2023-04-11T03:59:59.784Z,3.60
2023-04-11T04:02:27.039Z,3.60
2023-04-11T04:04:59.151Z,3.70
2023-04-11T04:07:27.577Z,3.60
2023-04-11T04:09:55.502Z,3.70
2023-04-11T04:12:22.796Z,3.70
2023-04-11T04:14:50.084Z,3.90
2023-04-11T04:17:17.473Z,3.90
2023-04-11T04:19:45.022Z,4.10
2023-04-11T04:22:13.600Z,4.30
2023-04-11T04:24:46.804Z,4.40
2023-04-11T04:27:14.076Z,4.40
2023-04-11T04:29:48.730Z,4.40
2023-04-11T04:32:23.408Z,4.30
2023-04-11T04:34:55.449Z,4.30
2023-04-11T04:37:24.878Z,4.20
2023-04-11T04:39:56.676Z,4.20
2023-04-11T04:42:29.979Z,4.30
2023-04-11T04:44:58.133Z,4.40
2023-04-11T04:47:29.879Z,4.50
2023-04-11T04:49:57.769Z,4.60
2023-04-11T04:52:26.762Z,4.80
2023-04-11T04:54:58.228Z,4.90
2023-04-11T04:57:29.239Z,5.00
2023-04-11T04:59:57.136Z,5.00
2023-04-11T05:02:28.259Z,5.20
2023-04-11T05:04:55.766Z,5.30
2023-04-11T05:07:23.759Z,5.40
2023-04-11T05:09:51.058Z,5.50
2023-04-11T05:12:20.426Z,5.60
2023-04-11T05:14:50.912Z,5.60
2023-04-11T05:17:18.572Z,5.60
2023-04-11T05:19:46.001Z,5.70
2023-04-11T05:22:13.171Z,5.80
2023-04-11T05:24:40.600Z,5.80
2023-04-11T05:27:07.834Z,5.90
2023-04-11T05:29:35.075Z,6.00
2023-04-11T05:32:02.189Z,6.20
2023-04-11T05:34:33.196Z,6.30
2023-04-11T05:37:01.564Z,6.50
2023-04-11T05:39:28.789Z,6.60
2023-04-11T05:41:57.042Z,6.80
2023-04-11T05:44:24.341Z,6.90
2023-04-11T05:46:51.585Z,7.00
2023-04-11T05:49:18.743Z,7.10
2023-04-11T05:51:47.496Z,7.20
2023-04-11T05:54:31.984Z,7.30
2023-04-11T05:56:59.259Z,7.40
2023-04-11T05:59:27.737Z,7.50
2023-04-11T06:01:56.879Z,7.50
2023-04-11T06:04:24.364Z,7.60
2023-04-11T06:06:52.721Z,7.60
2023-04-11T06:09:20.654Z,7.60
2023-04-11T06:11:48.263Z,7.60
2023-04-11T06:14:15.378Z,7.70
2023-04-11T06:16:42.785Z,7.70
2023-04-11T06:19:10.099Z,7.70
2023-04-11T06:21:37.521Z,7.80
2023-04-11T06:24:11.750Z,7.80
2023-04-11T06:26:39.037Z,7.80
2023-04-11T06:29:07.370Z,7.80
2023-04-11T06:31:34.595Z,7.80
2023-04-11T06:34:02.477Z,7.80
2023-04-11T06:36:30.518Z,7.90
2023-04-11T06:38:57.733Z,7.90
2023-04-11T06:41:32.613Z,8.00
2023-04-11T06:44:00.049Z,8.00
2023-04-11T06:46:27.489Z,8.10
2023-04-11T06:48:54.755Z,8.10
2023-04-11T06:51:22.076Z,8.10
2023-04-11T06:53:49.196Z,8.20
2023-04-11T06:56:16.335Z,8.30
2023-04-11T06:58:43.657Z,8.40
2023-04-11T07:01:11.473Z,8.40
2023-04-11T07:03:38.989Z,8.50
2023-04-11T07:06:07.692Z,8.60
2023-04-11T07:08:35.014Z,8.60
2023-04-11T07:11:02.332Z,8.70
2023-04-11T07:13:30.086Z,8.80
2023-04-11T07:16:00.178Z,8.80
2023-04-11T07:18:27.738Z,8.90
2023-04-11T07:20:54.992Z,9.00
2023-04-11T07:23:23.837Z,9.00
2023-04-11T07:25:51.250Z,9.10
2023-04-11T07:28:18.560Z,9.10
2023-04-11T07:30:46.734Z,9.20
2023-04-11T07:33:14.229Z,9.20
2023-04-11T07:35:41.689Z,9.30
2023-04-11T07:38:10.590Z,9.40
2023-04-11T07:40:38.002Z,9.40
2023-04-11T07:43:05.170Z,9.40
2023-04-11T07:45:33.696Z,9.40
2023-04-11T07:48:01.041Z,9.50
2023-04-11T07:50:28.369Z,9.50
2023-04-11T07:52:57.061Z,9.50
2023-04-11T07:55:24.358Z,9.40
2023-04-11T07:57:51.967Z,9.50
2023-04-11T08:00:21.137Z,9.60
2023-04-11T08:02:48.828Z,9.70
2023-04-11T08:05:16.301Z,9.90
2023-04-11T08:07:43.676Z,10.00
2023-04-11T08:10:11.088Z,10.10
2023-04-11T08:12:38.258Z,10.10
2023-04-11T08:15:05.862Z,10.10
2023-04-11T08:17:38.472Z,10.10
2023-04-11T08:20:09.043Z,10.30
2023-04-11T08:22:36.472Z,10.50
2023-04-11T08:25:04.035Z,10.50
2023-04-11T08:27:31.248Z,10.60
2023-04-11T08:29:59.470Z,10.70
2023-04-11T08:32:26.707Z,10.50
2023-04-11T08:34:54.049Z,10.40
2023-04-11T08:37:22.126Z,10.50
2023-04-11T08:39:49.356Z,10.60
2023-04-11T08:42:23.706Z,10.80
2023-04-11T08:45:04.353Z,10.90
2023-04-11T08:47:35.488Z,10.90
2023-04-11T08:50:02.690Z,11.00
2023-04-11T08:52:32.473Z,10.90
2023-04-11T08:55:00.111Z,10.70
2023-04-11T08:57:31.820Z,10.70
2023-04-11T09:00:09.922Z,10.80
2023-04-11T09:02:56.164Z,10.90
2023-04-11T09:05:33.032Z,11.00
2023-04-11T09:08:06.883Z,11.00
2023-04-11T09:10:35.440Z,11.30
2023-04-11T09:13:26.889Z,11.50
2023-04-11T09:16:14.844Z,11.80
2023-04-11T09:18:43.983Z,12.10
2023-04-11T09:21:13.986Z,12.20
2023-04-11T09:23:41.336Z,12.40
2023-04-11T09:26:10.705Z,12.40
2023-04-11T09:28:54.603Z,12.60
2023-04-11T09:31:38.534Z,12.60
2023-04-11T09:34:05.709Z,12.50
2023-04-11T09:36:33.008Z,12.50
2023-04-11T09:39:02.400Z,12.60
2023-04-11T09:41:32.607Z,12.70
2023-04-11T09:44:00.835Z,12.80
2023-04-11T09:46:28.445Z,12.90
2023-04-11T09:48:56.398Z,13.00
2023-04-11T09:51:35.696Z,13.20
2023-04-11T09:54:04.328Z,13.30
2023-04-11T09:56:34.794Z,13.30
2023-04-11T09:59:04.374Z,13.30
2023-04-11T10:01:31.791Z,13.50
2023-04-11T10:04:01.225Z,13.70
2023-04-11T10:06:34.508Z,13.90
2023-04-11T10:09:08.630Z,13.90
2023-04-11T10:11:36.917Z,13.80
2023-04-11T10:14:04.352Z,13.80
2023-04-11T10:16:34.614Z,14.00
2023-04-11T10:19:02.255Z,14.00
2023-04-11T10:21:36.570Z,14.10
2023-04-11T10:24:17.206Z,14.30
2023-04-11T10:26:55.330Z,14.30
2023-04-11T10:29:31.632Z,14.50
2023-04-11T10:32:16.613Z,14.70
2023-04-11T10:34:50.282Z,14.50
2023-04-11T10:37:18.505Z,14.80
2023-04-11T10:39:51.714Z,15.10
2023-04-11T10:42:32.898Z,15.50
2023-04-11T10:45:31.142Z,15.70
2023-04-11T10:48:13.236Z,15.80
2023-04-11T10:50:44.075Z,15.80
2023-04-11T10:53:36.678Z,15.80
2023-04-11T10:56:04.102Z,16.00
2023-04-11T10:58:39.933Z,16.30
2023-04-11T11:01:31.451Z,16.70
2023-04-11T11:04:05.117Z,16.80
2023-04-11T11:06:46.084Z,16.80
2023-04-11T11:09:23.628Z,16.90
2023-04-11T11:12:17.620Z,16.80
2023-04-11T11:14:47.370Z,16.40
2023-04-11T11:17:16.547Z,16.10
2023-04-11T11:19:45.318Z,16.00
2023-04-11T11:22:25.984Z,15.70
2023-04-11T11:24:54.344Z,15.30
2023-04-11T11:27:25.355Z,15.10
2023-04-11T11:29:53.647Z,15.00
2023-04-11T11:32:25.089Z,15.00
2023-04-11T11:34:53.623Z,14.80
2023-04-11T11:37:21.893Z,14.80
2023-04-11T11:39:50.324Z,14.60
2023-04-11T11:42:17.930Z,14.60
2023-04-11T11:44:45.334Z,14.60
2023-04-11T11:47:16.940Z,14.60
2023-04-11T11:49:51.307Z,14.50
2023-04-11T11:52:35.469Z,14.50
2023-04-11T11:57:53.918Z,14.40
2023-04-11T12:00:29.066Z,14.30
2023-04-11T12:02:57.524Z,14.30
2023-04-11T12:05:32.996Z,14.20
2023-04-11T12:08:05.452Z,14.00
2023-04-11T12:10:44.250Z,14.00
2023-04-11T12:13:23.820Z,14.00
2023-04-11T12:15:55.977Z,13.90
2023-04-11T12:18:24.655Z,13.70
2023-04-11T12:20:58.500Z,13.50
2023-04-11T12:23:25.649Z,13.40
2023-04-11T12:25:53.023Z,13.40
2023-04-11T12:28:20.521Z,13.30
2023-04-11T12:30:47.987Z,13.30
2023-04-11T12:33:15.226Z,13.20
2023-04-11T12:35:42.553Z,13.10
2023-04-11T12:38:10.888Z,12.90
2023-04-11T12:40:40.668Z,12.80
2023-04-11T12:43:07.938Z,12.70
2023-04-11T12:45:36.332Z,12.50
2023-04-11T12:48:03.815Z,12.50
2023-04-11T12:50:31.516Z,12.30
2023-04-11T12:52:58.682Z,12.20
2023-04-11T12:55:26.009Z,12.10
2023-04-11T12:57:53.280Z,12.00
2023-04-11T13:00:20.638Z,11.90
2023-04-11T13:02:49.054Z,11.80
2023-04-11T13:05:17.261Z,11.70
2023-04-11T13:07:45.702Z,11.60
2023-04-11T13:10:14.395Z,11.50
2023-04-11T13:12:44.691Z,11.30
2023-04-11T13:15:15.034Z,11.20
2023-04-11T13:17:43.128Z,11.10
2023-04-11T13:20:11.842Z,11.10
2023-04-11T13:22:42.758Z,11.00
2023-04-11T13:25:11.251Z,10.90
2023-04-11T13:27:39.995Z,10.90
2023-04-11T13:30:08.869Z,10.80
2023-04-11T13:32:36.390Z,10.80
2023-04-11T13:35:04.359Z,10.80
2023-04-11T13:37:31.852Z,10.70
2023-04-11T13:39:59.008Z,10.70
2023-04-11T13:42:26.215Z,10.60
2023-04-11T13:44:53.701Z,10.30
2023-04-11T13:47:21.048Z,10.10
2023-04-11T13:49:48.466Z,10.00
2023-04-11T13:52:15.758Z,9.80
2023-04-11T13:54:43.347Z,9.60
2023-04-11T13:57:10.574Z,9.50
2023-04-11T13:59:37.758Z,9.60
2023-04-11T14:02:05.040Z,9.50
2023-04-11T14:04:32.434Z,9.40
2023-04-11T14:06:59.843Z,9.40
2023-04-11T14:09:27.215Z,9.40
2023-04-11T14:11:54.360Z,9.40
2023-04-11T14:14:22.189Z,9.30
2023-04-11T14:16:50.629Z,9.20
2023-04-11T14:19:17.935Z,9.20
2023-04-11T14:21:45.128Z,9.30
2023-04-11T14:24:12.800Z,9.40
2023-04-11T14:26:40.020Z,9.40
2023-04-11T14:29:07.703Z,9.50
2023-04-11T14:31:36.367Z,9.50
2023-04-11T14:34:03.554Z,9.40
2023-04-11T14:36:32.391Z,9.50
2023-04-11T14:38:59.654Z,9.50
2023-04-11T14:41:26.823Z,9.50
2023-04-11T14:43:54.356Z,9.50
2023-04-11T14:46:22.325Z,9.50
2023-04-11T14:48:49.670Z,9.40
2023-04-11T14:51:17.065Z,9.40
2023-04-11T14:53:45.156Z,9.50
2023-04-11T14:56:12.472Z,9.50
2023-04-11T14:58:40.181Z,9.50
2023-04-11T15:01:07.964Z,9.60
2023-04-11T15:03:35.513Z,9.60
2023-04-11T15:06:03.270Z,9.70
2023-04-11T15:08:31.053Z,9.60
2023-04-11T15:10:58.453Z,9.60
2023-04-11T15:13:27.403Z,9.50
2023-04-11T15:15:55.056Z,9.50
2023-04-11T15:18:29.035Z,9.40
2023-04-11T15:20:58.061Z,9.40
2023-04-11T15:23:26.409Z,9.50
2023-04-11T15:26:03.025Z,9.50
2023-04-11T15:28:36.885Z,9.50
2023-04-11T15:31:06.434Z,9.50
2023-04-11T15:33:34.253Z,9.50
2023-04-11T15:36:01.707Z,9.60
2023-04-11T15:38:29.232Z,9.60
2023-04-11T15:40:58.763Z,9.60
2023-04-11T15:43:26.655Z,9.60
2023-04-11T15:45:54.408Z,9.70
2023-04-11T15:48:25.080Z,9.70
2023-04-11T15:50:52.374Z,9.80
2023-04-11T15:53:19.689Z,9.80
2023-04-11T15:55:47.895Z,9.70
2023-04-11T15:58:15.586Z,9.70
2023-04-11T16:00:44.254Z,9.70
2023-04-11T16:03:12.072Z,9.60
2023-04-11T16:05:41.891Z,9.70
2023-04-11T16:08:09.539Z,9.80
2023-04-11T16:10:36.929Z,9.70
2023-04-11T16:13:04.219Z,9.60
2023-04-11T16:15:35.717Z,9.50
2023-04-11T16:18:07.243Z,9.40
2023-04-11T16:20:35.319Z,9.40
2023-04-11T16:23:02.612Z,9.30
2023-04-11T16:25:29.856Z,9.30
2023-04-11T16:27:57.657Z,9.30
2023-04-11T16:30:26.470Z,9.20
2023-04-11T16:32:54.525Z,9.30
2023-04-11T16:35:21.887Z,9.20
2023-04-11T16:37:49.251Z,9.20
2023-04-11T16:40:16.995Z,9.30
2023-04-11T16:42:45.731Z,9.30
2023-04-11T16:45:13.354Z,9.40
2023-04-11T16:47:41.296Z,9.50
2023-04-11T16:50:09.014Z,9.50
2023-04-11T16:52:41.747Z,9.50
2023-04-11T16:55:09.760Z,9.50
2023-04-11T16:57:38.049Z,9.60
2023-04-11T17:00:11.892Z,9.60
2023-04-11T17:02:39.403Z,9.60
2023-04-11T17:05:07.820Z,9.60
2023-04-11T17:07:37.172Z,9.60
2023-04-11T17:10:07.703Z,9.50
2023-04-11T17:12:35.206Z,9.60
2023-04-11T17:15:02.678Z,9.50
2023-04-11T17:17:30.134Z,9.40
2023-04-11T17:19:57.536Z,9.20
2023-04-11T17:22:25.338Z,9.00
2023-04-11T17:24:52.530Z,8.90
2023-04-11T17:27:23.827Z,8.80
2023-04-11T17:29:51.463Z,8.70
2023-04-11T17:32:19.386Z,8.60
2023-04-11T17:34:48.830Z,8.50
2023-04-11T17:37:16.909Z,8.50
2023-04-11T17:39:44.994Z,8.40
2023-04-11T17:42:14.375Z,8.30
2023-04-11T17:44:41.627Z,8.30
2023-04-11T17:47:12.489Z,8.20
2023-04-11T17:49:39.714Z,8.20
2023-04-11T17:52:07.005Z,8.10
2023-04-11T17:54:34.668Z,8.10
2023-04-11T17:57:01.925Z,8.10
2023-04-11T17:59:29.101Z,8.00
2023-04-11T18:01:57.157Z,8.00
2023-04-11T18:04:24.700Z,7.90
2023-04-11T18:06:51.928Z,7.80
2023-04-11T18:09:19.143Z,7.80
2023-04-11T18:11:46.739Z,7.80
2023-04-11T18:14:13.998Z,7.70
2023-04-11T18:16:41.434Z,7.60
2023-04-11T18:19:08.719Z,7.50
2023-04-11T18:21:36.221Z,7.50
2023-04-11T18:24:04.408Z,7.50
2023-04-11T18:26:31.864Z,7.50
2023-04-11T18:29:01.034Z,7.50
2023-04-11T18:31:29.484Z,7.50
2023-04-11T18:33:57.257Z,7.50
2023-04-11T18:36:25.457Z,7.50
2023-04-11T18:38:53.498Z,7.50
2023-04-11T18:41:21.115Z,7.40
2023-04-11T18:43:48.595Z,7.50
2023-04-11T18:48:43.295Z,7.40
2023-04-11T18:51:10.720Z,7.40
2023-04-11T18:53:41.176Z,7.40
2023-04-11T18:56:08.674Z,7.30
2023-04-11T18:58:40.124Z,7.30
2023-04-11T19:01:15.496Z,7.30
2023-04-11T19:03:44.710Z,7.30
2023-04-11T19:06:13.198Z,7.40
2023-04-11T19:08:41.160Z,7.30
2023-04-11T19:11:08.436Z,7.30
2023-04-11T19:13:35.975Z,7.30
2023-04-11T19:16:03.304Z,7.30
2023-04-11T19:18:30.833Z,7.40
2023-04-11T19:20:58.920Z,7.50
2023-04-11T19:23:26.707Z,7.50
2023-04-11T19:25:55.175Z,7.50
2023-04-11T19:28:22.817Z,7.50
2023-04-11T19:30:50.126Z,7.50
2023-04-11T19:33:18.926Z,7.40
2023-04-11T19:35:46.824Z,7.40
2023-04-11T19:38:13.953Z,7.30
2023-04-11T19:40:41.253Z,7.30
2023-04-11T19:43:08.504Z,7.30
2023-04-11T19:45:36.070Z,7.30
2023-04-11T19:48:03.443Z,7.20
2023-04-11T19:50:31.197Z,7.20
2023-04-11T19:52:59.828Z,7.10
2023-04-11T19:55:27.497Z,7.10
2023-04-11T19:57:54.731Z,7.10
2023-04-11T20:00:22.034Z,7.00
2023-04-11T20:02:49.311Z,6.90
2023-04-11T20:05:18.791Z,6.90
2023-04-11T20:07:47.077Z,6.90
2023-04-11T20:10:15.345Z,6.90
2023-04-11T20:12:42.775Z,6.80
2023-04-11T20:15:10.984Z,6.80
2023-04-11T20:17:38.284Z,6.70
2023-04-11T20:20:06.376Z,6.70
2023-04-11T20:22:33.783Z,6.60
2023-04-11T20:25:01.306Z,6.60
2023-04-11T20:27:28.466Z,6.70
2023-04-11T20:29:56.939Z,6.60
2023-04-11T20:32:24.200Z,6.60
2023-04-11T20:34:51.503Z,6.50
2023-04-11T20:37:19.732Z,6.50
2023-04-11T20:39:46.996Z,6.50
2023-04-11T20:42:14.106Z,6.50
2023-04-11T20:44:42.836Z,6.50
2023-04-11T20:47:10.293Z,6.40
2023-04-11T20:49:41.388Z,6.40
2023-04-11T20:52:08.582Z,6.40
2023-04-11T20:54:36.038Z,6.30
2023-04-11T20:57:03.390Z,6.30
2023-04-11T20:59:32.316Z,6.30
2023-04-11T21:01:59.558Z,6.20
2023-04-11T21:04:28.501Z,6.30
2023-04-11T21:06:57.016Z,6.20
2023-04-11T21:09:24.184Z,6.20
2023-04-11T21:11:51.701Z,6.20
2023-04-11T21:14:18.881Z,6.10
2023-04-11T21:16:46.232Z,6.10
2023-04-11T21:19:13.774Z,6.10
2023-04-11T21:21:41.009Z,6.00
2023-04-11T21:24:09.594Z,6.00
2023-04-11T21:26:36.975Z,6.00
2023-04-11T21:29:04.095Z,5.90
2023-04-11T21:31:31.309Z,6.00
2023-04-11T21:33:58.987Z,6.00
2023-04-11T21:36:26.789Z,6.00
2023-04-11T21:38:54.289Z,6.00
2023-04-11T21:41:21.383Z,6.00
2023-04-11T21:43:48.707Z,6.00
2023-04-11T21:46:16.439Z,6.00
2023-04-11T21:48:43.655Z,5.90
2023-04-11T21:51:11.822Z,5.80
2023-04-11T21:53:39.007Z,5.80
2023-04-11T21:56:07.846Z,5.80
2023-04-11T21:58:35.207Z,5.80
2023-04-11T22:01:03.098Z,5.80
2023-04-11T22:03:31.133Z,5.80
2023-04-11T22:05:58.991Z,5.80
2023-04-11T22:08:29.424Z,5.80
2023-04-11T22:10:57.026Z,5.80
2023-04-11T22:13:24.388Z,5.80
2023-04-11T22:15:58.772Z,5.70
2023-04-11T22:18:27.321Z,5.80
2023-04-11T22:20:55.022Z,5.80
2023-04-11T22:23:22.212Z,5.90
2023-04-11T22:25:57.933Z,5.70
2023-04-11T22:28:26.472Z,5.60
2023-04-11T22:30:54.238Z,5.50
2023-04-11T22:33:21.905Z,5.40
2023-04-11T22:35:49.096Z,5.30
2023-04-11T22:38:17.083Z,5.30
2023-04-11T22:40:44.333Z,5.30
2023-04-11T22:43:11.860Z,5.20
2023-04-11T22:45:39.447Z,5.20
2023-04-11T22:48:06.618Z,5.30
2023-04-11T22:50:39.151Z,5.20
2023-04-11T22:53:09.603Z,5.20
2023-04-11T22:55:36.942Z,5.20
2023-04-11T22:58:04.611Z,5.20
2023-04-11T23:00:38.690Z,5.20
2023-04-11T23:03:07.566Z,5.30
2023-04-11T23:05:39.983Z,5.30
2023-04-11T23:08:08.236Z,5.20
2023-04-11T23:10:35.668Z,5.10
2023-04-11T23:13:03.817Z,5.10
2023-04-11T23:15:31.960Z,5.00
2023-04-11T23:17:59.203Z,5.00
2023-04-11T23:20:26.452Z,5.00
2023-04-11T23:22:53.683Z,4.90
2023-04-11T23:25:21.278Z,4.90
2023-04-11T23:27:48.669Z,4.80
2023-04-11T23:30:17.799Z,4.90
2023-04-11T23:32:45.053Z,4.90
2023-04-11T23:35:13.493Z,4.90
2023-04-11T23:37:41.112Z,4.80
2023-04-11T23:40:14.143Z,4.90
2023-04-11T23:42:42.397Z,4.80
2023-04-11T23:45:15.209Z,4.80
2023-04-11T23:47:42.639Z,4.80
2023-04-11T23:50:10.921Z,4.90
2023-04-11T23:52:38.106Z,4.80
2023-04-11T23:55:05.933Z,4.80
2023-04-11T23:57:33.091Z,4.80
